createdAt,value
2022-12-09T00:04:23.531Z,4.31
2022-12-09T00:09:25.507Z,4.38
2022-12-09T00:14:27.556Z,4.50
2022-12-09T00:19:29.632Z,4.62
2022-12-09T00:24:32.554Z,4.66
2022-12-09T00:29:34.551Z,4.61
2022-12-09T00:34:36.412Z,4.62
2022-12-09T00:39:39.164Z,4.74
2022-12-09T00:44:41.076Z,4.77
2022-12-09T00:49:42.926Z,4.81
2022-12-09T00:54:44.958Z,4.88
2022-12-09T00:59:47.174Z,4.91
2022-12-09T01:04:52.195Z,4.68
2022-12-09T01:09:54.171Z,4.63
2022-12-09T01:14:56.124Z,4.60
2022-12-09T01:19:58.246Z,4.49
2022-12-09T01:25:00.208Z,4.36
2022-12-09T01:30:02.185Z,4.41
2022-12-09T01:35:05.153Z,4.34
2022-12-09T01:40:12.496Z,4.50
2022-12-09T01:45:20.843Z,4.43
2022-12-09T01:50:26.095Z,4.42
2022-12-09T01:55:29.531Z,4.39
2022-12-09T02:00:31.934Z,4.37
2022-12-09T02:05:35.004Z,4.53
2022-12-09T02:10:44.939Z,4.53
2022-12-09T02:15:59.000Z,4.67
2022-12-09T02:21:26.639Z,4.63
2022-12-09T02:26:46.848Z,4.71
2022-12-09T02:32:21.625Z,4.53
2022-12-09T02:37:31.926Z,4.48
2022-12-09T02:42:36.692Z,4.31
2022-12-09T02:47:46.686Z,4.23
2022-12-09T02:52:52.780Z,4.24
2022-12-09T02:57:59.986Z,4.32
2022-12-09T03:03:07.002Z,4.35
2022-12-09T03:08:31.628Z,4.14
2022-12-09T03:13:46.892Z,4.10
2022-12-09T03:18:54.269Z,4.05
2022-12-09T03:24:00.456Z,4.04
2022-12-09T03:29:07.163Z,4.10
2022-12-09T03:34:14.449Z,4.04
2022-12-09T03:39:19.128Z,4.03
2022-12-09T03:44:32.426Z,4.03
2022-12-09T03:49:34.952Z,3.86
2022-12-09T03:54:46.541Z,3.98
2022-12-09T03:59:55.979Z,3.92
2022-12-09T04:04:58.048Z,3.70
2022-12-09T04:09:59.966Z,3.69
2022-12-09T04:15:02.088Z,3.68
2022-12-09T04:20:04.938Z,3.72
2022-12-09T04:25:07.603Z,3.68
2022-12-09T04:30:10.425Z,3.70
2022-12-09T04:35:12.647Z,3.72
2022-12-09T04:40:21.315Z,3.74
2022-12-09T04:45:25.736Z,3.72
2022-12-09T04:50:27.977Z,3.72
2022-12-09T04:55:30.222Z,3.63
2022-12-09T05:00:32.724Z,3.56
2022-12-09T05:05:34.882Z,3.36
2022-12-09T05:10:36.920Z,3.33
2022-12-09T05:15:39.094Z,3.27
2022-12-09T05:20:41.409Z,3.19
2022-12-09T05:25:43.360Z,3.09
2022-12-09T05:30:45.353Z,3.06
2022-12-09T05:35:52.712Z,3.01
2022-12-09T05:40:55.323Z,3.00
2022-12-09T05:45:57.733Z,2.91
2022-12-09T05:51:02.948Z,2.69
2022-12-09T05:56:05.785Z,2.75
2022-12-09T06:01:09.479Z,2.70
2022-12-09T06:06:12.908Z,2.79
2022-12-09T06:11:21.020Z,2.69
2022-12-09T06:16:24.235Z,2.54
2022-12-09T06:21:26.721Z,2.75
2022-12-09T06:26:30.356Z,2.46
2022-12-09T06:31:33.344Z,2.80
2022-12-09T06:36:35.709Z,2.85
2022-12-09T06:41:40.107Z,2.97
2022-12-09T06:46:42.326Z,3.01
2022-12-09T06:51:44.936Z,3.05
2022-12-09T06:56:47.769Z,3.18
2022-12-09T07:01:50.168Z,3.24
2022-12-09T07:06:52.748Z,3.20
2022-12-09T07:11:54.757Z,3.27
2022-12-09T07:16:56.792Z,3.45
2022-12-09T07:21:59.861Z,3.41
2022-12-09T07:27:07.528Z,3.35
2022-12-09T07:32:14.045Z,3.49
2022-12-09T07:37:16.358Z,3.62
2022-12-09T07:42:18.642Z,3.68
2022-12-09T07:47:28.100Z,3.69
2022-12-09T07:52:30.711Z,3.73
2022-12-09T07:57:34.157Z,3.45
2022-12-09T08:02:36.647Z,3.72
2022-12-09T08:07:43.979Z,3.75
2022-12-09T08:12:46.768Z,3.83
2022-12-09T08:17:49.465Z,3.88
2022-12-09T08:22:51.808Z,3.98
2022-12-09T08:27:54.265Z,4.35
2022-12-09T08:32:56.430Z,4.66
2022-12-09T08:37:58.890Z,5.05
2022-12-09T08:43:01.224Z,5.42
2022-12-09T08:48:03.783Z,5.61
2022-12-09T08:53:06.044Z,5.83
2022-12-09T08:58:08.523Z,5.89
2022-12-09T09:03:10.770Z,6.20
2022-12-09T09:08:13.394Z,6.35
2022-12-09T09:13:15.785Z,6.44
2022-12-09T09:18:18.298Z,6.66
2022-12-09T09:23:20.373Z,6.55
2022-12-09T09:28:26.065Z,6.76
2022-12-09T09:33:33.162Z,6.89
2022-12-09T09:38:35.495Z,6.93
2022-12-09T09:43:38.453Z,7.13
2022-12-09T09:48:40.678Z,7.03
2022-12-09T09:53:43.056Z,6.91
2022-12-09T09:58:57.271Z,7.33
2022-12-09T10:04:14.043Z,7.18
2022-12-09T10:09:31.463Z,7.58
2022-12-09T10:14:49.496Z,7.64
2022-12-09T10:19:57.561Z,7.91
2022-12-09T10:25:08.163Z,7.93
2022-12-09T10:30:16.721Z,8.13
2022-12-09T10:35:20.986Z,8.42
2022-12-09T10:40:48.000Z,8.45
2022-12-09T10:51:19.645Z,7.90
2022-12-09T10:56:31.684Z,8.35
2022-12-09T11:02:11.023Z,8.34
2022-12-09T11:07:13.588Z,8.52
2022-12-09T11:12:36.182Z,8.37
2022-12-09T11:17:56.892Z,8.35
2022-12-09T11:23:17.907Z,8.29
2022-12-09T11:28:27.680Z,7.65
2022-12-09T11:33:32.485Z,8.00
2022-12-09T11:38:40.874Z,7.57
2022-12-09T11:43:45.982Z,8.15
2022-12-09T11:48:55.826Z,8.16
2022-12-09T11:54:24.236Z,7.31
2022-12-09T11:59:44.019Z,7.79
2022-12-09T12:04:55.812Z,7.70
2022-12-09T12:09:59.027Z,7.64
2022-12-09T12:15:10.751Z,7.67
2022-12-09T12:20:14.076Z,7.61
2022-12-09T12:25:23.620Z,7.74
2022-12-09T12:30:34.232Z,7.54
2022-12-09T12:35:54.802Z,7.46
2022-12-09T12:41:33.173Z,7.38
2022-12-09T12:46:47.659Z,7.07
2022-12-09T12:52:53.821Z,7.02
2022-12-09T12:58:28.849Z,6.75
2022-12-09T13:03:43.759Z,6.79
2022-12-09T13:09:02.677Z,6.55
2022-12-09T13:14:13.604Z,6.57
2022-12-09T13:19:22.000Z,6.37
2022-12-09T13:24:46.248Z,6.29
2022-12-09T13:30:02.008Z,6.10
2022-12-09T13:35:21.488Z,6.11
2022-12-09T13:40:32.572Z,6.11
2022-12-09T13:45:34.545Z,5.98
2022-12-09T13:50:51.802Z,5.87
2022-12-09T13:56:07.172Z,5.72
2022-12-09T14:01:12.116Z,5.47
2022-12-09T14:06:23.443Z,4.86
2022-12-09T14:11:37.410Z,4.91
2022-12-09T14:16:39.455Z,4.92
2022-12-09T14:21:41.501Z,4.81
2022-12-09T14:27:08.018Z,4.74
2022-12-09T14:32:21.814Z,4.62
2022-12-09T14:37:32.673Z,4.60
2022-12-09T14:42:46.287Z,4.47
2022-12-09T14:47:48.466Z,4.33
2022-12-09T14:52:57.748Z,4.38
2022-12-09T14:58:01.683Z,4.30
2022-12-09T15:03:33.185Z,4.04
2022-12-09T15:08:40.264Z,4.05
2022-12-09T15:13:45.900Z,4.30
2022-12-09T15:18:48.586Z,4.32
2022-12-09T15:23:50.562Z,4.38
2022-12-09T15:28:53.900Z,4.33
2022-12-09T15:34:00.935Z,4.30
2022-12-09T15:39:07.414Z,4.41
2022-12-09T15:44:16.444Z,4.32
2022-12-09T15:49:23.617Z,4.09
2022-12-09T15:54:31.668Z,4.17
2022-12-09T15:59:38.634Z,4.13
2022-12-09T16:04:46.940Z,4.23
2022-12-09T16:10:15.796Z,4.59
2022-12-09T16:15:57.011Z,4.62
2022-12-09T16:21:07.469Z,4.29
2022-12-09T16:26:29.184Z,4.36
2022-12-09T16:31:31.784Z,4.48
2022-12-09T16:36:33.681Z,4.32
2022-12-09T16:42:02.931Z,4.39
2022-12-09T16:47:10.961Z,4.22
2022-12-09T16:52:20.665Z,4.36
2022-12-09T16:57:22.621Z,4.15
2022-12-09T17:02:33.255Z,4.15
2022-12-09T17:07:36.408Z,4.16
2022-12-09T17:12:38.532Z,4.43
2022-12-09T17:17:43.880Z,4.63
2022-12-09T17:22:50.097Z,4.65
2022-12-09T17:27:52.029Z,4.57
2022-12-09T17:32:53.919Z,4.71
2022-12-09T17:37:55.792Z,4.90
2022-12-09T17:42:57.686Z,5.04
2022-12-09T17:47:59.613Z,4.91
2022-12-09T17:53:01.683Z,4.98
2022-12-09T17:58:03.595Z,4.78
2022-12-09T18:03:05.725Z,4.50
2022-12-09T18:08:08.018Z,4.18
2022-12-09T18:13:10.032Z,4.24
2022-12-09T18:18:12.035Z,4.20
2022-12-09T18:23:14.024Z,4.28
2022-12-09T18:28:15.896Z,4.03
2022-12-09T18:33:17.724Z,4.26
2022-12-09T18:38:19.636Z,4.27
2022-12-09T18:43:21.550Z,4.37
2022-12-09T18:48:23.424Z,4.20
2022-12-09T18:53:25.727Z,3.98
2022-12-09T18:58:57.566Z,4.20
2022-12-09T19:03:50.053Z,4.10
2022-12-09T19:08:55.440Z,4.05
2022-12-09T19:13:57.899Z,3.94
2022-12-09T19:19:05.432Z,3.91
2022-12-09T19:24:14.855Z,4.01
2022-12-09T19:29:17.752Z,4.13
2022-12-09T19:34:20.960Z,4.26
2022-12-09T19:39:27.020Z,3.95
2022-12-09T19:44:59.478Z,3.70
2022-12-09T19:49:51.231Z,3.78
2022-12-09T19:54:53.174Z,4.13
2022-12-09T19:59:55.034Z,3.93
2022-12-09T20:04:56.906Z,3.94
2022-12-09T20:09:58.973Z,4.01
2022-12-09T20:15:01.087Z,4.28
2022-12-09T20:20:03.013Z,4.34
2022-12-09T20:25:05.419Z,4.59
2022-12-09T20:30:08.554Z,4.67
2022-12-09T20:35:10.812Z,4.92
2022-12-09T20:40:12.781Z,5.00
2022-12-09T20:45:14.606Z,5.24
2022-12-09T20:50:17.549Z,5.32
2022-12-09T20:55:20.533Z,5.41
2022-12-09T21:00:22.856Z,5.30
2022-12-09T21:05:24.698Z,5.23
2022-12-09T21:10:26.837Z,5.02
2022-12-09T21:15:29.244Z,5.42
2022-12-09T21:20:31.103Z,5.48
2022-12-09T21:25:33.058Z,5.30
2022-12-09T21:30:35.026Z,4.94
2022-12-09T21:35:37.693Z,4.90
2022-12-09T21:40:40.563Z,5.12
2022-12-09T21:45:42.447Z,5.01
2022-12-09T21:50:45.111Z,5.20
2022-12-09T21:55:46.958Z,5.03
2022-12-09T22:00:48.939Z,5.07
2022-12-09T22:05:56.644Z,5.01
2022-12-09T22:11:01.347Z,4.90
2022-12-09T22:16:11.471Z,4.92
2022-12-09T22:21:24.756Z,4.88
2022-12-09T22:26:27.448Z,4.74
2022-12-09T22:31:32.459Z,5.07
2022-12-09T22:36:37.128Z,5.00
2022-12-09T22:41:39.286Z,4.75
2022-12-09T22:46:42.169Z,4.77
2022-12-09T22:51:45.156Z,4.65
2022-12-09T22:56:47.251Z,4.56
2022-12-09T23:01:51.075Z,4.83
2022-12-09T23:06:52.945Z,5.01
2022-12-09T23:11:55.124Z,4.80
2022-12-09T23:16:58.424Z,4.82
2022-12-09T23:22:01.616Z,5.02
2022-12-09T23:27:05.606Z,5.05
2022-12-09T23:32:07.473Z,5.02
2022-12-09T23:37:09.289Z,4.83
2022-12-09T23:42:11.225Z,4.83
2022-12-09T23:47:13.110Z,4.69
2022-12-09T23:52:14.980Z,4.74
2022-12-09T23:57:16.824Z,4.72
